Kathmandu, Nepal
Current Conditions -  °F | °C
As of 2:50 PM on Monday 20 Oct 2014 (Local Time) from VNKT Reporting Station
Few Clouds Few Clouds  
Wind Chill: 73°   Ceiling: Unl
Heat Index: 73°   Visibility: 6mi
Dew Point: 55°   Wind: 8mph
Humidity: 53%   Direction: 280°W
Pressure: 30.06"   Gusts: NA
Location:  27.71°N, 85.31°E
Report Text: VNKT 200950Z 28007KT 9999 FEW020 23/13 Q1018 NOSIG
Loading
Personal Weather Stations






























Interactive Weather Map
Tropical Storm Tracking
New forecast layout! Learn more

10-Day Weather Forecast

Advertisements
Track Severe Weather on mobile